sensor_id;sensor_type;location;lat;lon;timestamp;temperature;humidity
2929;DHT22;1474;51.460;7.150;2023-03-26T00:00:53;8.20;99.90
2929;DHT22;1474;51.460;7.150;2023-03-26T00:03:20;8.10;99.90
2929;DHT22;1474;51.460;7.150;2023-03-26T00:05:46;8.10;99.90
2929;DHT22;1474;51.460;7.150;2023-03-26T00:08:12;8.20;99.90
2929;DHT22;1474;51.460;7.150;2023-03-26T00:10:39;8.20;99.90
2929;DHT22;1474;51.460;7.150;2023-03-26T00:13:07;8.20;99.90
2929;DHT22;1474;51.460;7.150;2023-03-26T00:15:33;8.20;99.90
2929;DHT22;1474;51.460;7.150;2023-03-26T00:17:59;8.20;99.90
2929;DHT22;1474;51.460;7.150;2023-03-26T00:20:26;8.20;99.90
2929;DHT22;1474;51.460;7.150;2023-03-26T00:22:53;8.20;99.90
2929;DHT22;1474;51.460;7.150;2023-03-26T00:25:22;8.30;99.90
2929;DHT22;1474;51.460;7.150;2023-03-26T00:27:49;8.30;99.90
2929;DHT22;1474;51.460;7.150;2023-03-26T00:30:15;8.20;99.90
2929;DHT22;1474;51.460;7.150;2023-03-26T00:32:41;8.30;99.90
2929;DHT22;1474;51.460;7.150;2023-03-26T00:35:08;8.30;99.90
2929;DHT22;1474;51.460;7.150;2023-03-26T00:37:33;8.30;99.90
2929;DHT22;1474;51.460;7.150;2023-03-26T00:39:59;8.30;99.90
2929;DHT22;1474;51.460;7.150;2023-03-26T00:42:31;8.30;99.90
2929;DHT22;1474;51.460;7.150;2023-03-26T00:44:57;8.30;99.90
2929;DHT22;1474;51.460;7.150;2023-03-26T00:47:24;8.30;99.90
2929;DHT22;1474;51.460;7.150;2023-03-26T00:49:50;8.30;99.90
2929;DHT22;1474;51.460;7.150;2023-03-26T00:52:16;8.30;99.90
2929;DHT22;1474;51.460;7.150;2023-03-26T00:54:50;8.30;99.90
2929;DHT22;1474;51.460;7.150;2023-03-26T00:57:17;8.30;99.90
2929;DHT22;1474;51.460;7.150;2023-03-26T00:59:45;8.30;99.90
2929;DHT22;1474;51.460;7.150;2023-03-26T01:02:12;8.30;99.90
2929;DHT22;1474;51.460;7.150;2023-03-26T01:04:44;8.30;99.90
2929;DHT22;1474;51.460;7.150;2023-03-26T01:07:13;8.30;99.90
2929;DHT22;1474;51.460;7.150;2023-03-26T01:09:44;8.30;99.90
2929;DHT22;1474;51.460;7.150;2023-03-26T01:12:17;8.30;99.90
2929;DHT22;1474;51.460;7.150;2023-03-26T01:14:45;8.30;99.90
2929;DHT22;1474;51.460;7.150;2023-03-26T01:17:11;8.30;99.90
2929;DHT22;1474;51.460;7.150;2023-03-26T01:20:10;8.30;99.90
2929;DHT22;1474;51.460;7.150;2023-03-26T01:22:43;8.30;99.90
2929;DHT22;1474;51.460;7.150;2023-03-26T01:25:09;8.40;99.90
2929;DHT22;1474;51.460;7.150;2023-03-26T01:33:06;8.30;99.90
2929;DHT22;1474;51.460;7.150;2023-03-26T01:38:24;8.30;99.90
2929;DHT22;1474;51.460;7.150;2023-03-26T01:41:03;8.30;99.90
2929;DHT22;1474;51.460;7.150;2023-03-26T01:43:38;8.30;99.90
2929;DHT22;1474;51.460;7.150;2023-03-26T01:46:08;8.30;99.90
2929;DHT22;1474;51.460;7.150;2023-03-26T01:48:37;8.30;99.90
2929;DHT22;1474;51.460;7.150;2023-03-26T01:51:05;8.30;99.90
2929;DHT22;1474;51.460;7.150;2023-03-26T01:53:32;8.30;99.90
2929;DHT22;1474;51.460;7.150;2023-03-26T01:58:38;8.30;99.90
2929;DHT22;1474;51.460;7.150;2023-03-26T02:01:21;8.30;99.90
2929;DHT22;1474;51.460;7.150;2023-03-26T02:04:10;8.20;99.90
2929;DHT22;1474;51.460;7.150;2023-03-26T02:09:34;8.30;99.90
2929;DHT22;1474;51.460;7.150;2023-03-26T02:12:03;8.30;99.90
2929;DHT22;1474;51.460;7.150;2023-03-26T02:14:30;8.20;99.90
2929;DHT22;1474;51.460;7.150;2023-03-26T02:16:55;8.20;99.90
2929;DHT22;1474;51.460;7.150;2023-03-26T02:19:23;8.20;99.90
2929;DHT22;1474;51.460;7.150;2023-03-26T02:21:49;8.20;99.90
2929;DHT22;1474;51.460;7.150;2023-03-26T02:24:18;8.20;99.90
2929;DHT22;1474;51.460;7.150;2023-03-26T02:26:44;8.10;99.90
2929;DHT22;1474;51.460;7.150;2023-03-26T02:29:13;8.10;99.90
2929;DHT22;1474;51.460;7.150;2023-03-26T02:31:43;8.10;99.90
2929;DHT22;1474;51.460;7.150;2023-03-26T02:34:09;8.10;99.90
2929;DHT22;1474;51.460;7.150;2023-03-26T02:36:35;8.10;99.90
2929;DHT22;1474;51.460;7.150;2023-03-26T02:39:01;8.10;99.90
2929;DHT22;1474;51.460;7.150;2023-03-26T02:41:26;8.10;99.90
2929;DHT22;1474;51.460;7.150;2023-03-26T02:43:52;8.10;99.90
2929;DHT22;1474;51.460;7.150;2023-03-26T02:46:17;8.10;99.90
2929;DHT22;1474;51.460;7.150;2023-03-26T02:48:43;8.00;99.90
2929;DHT22;1474;51.460;7.150;2023-03-26T02:51:09;8.00;99.90
2929;DHT22;1474;51.460;7.150;2023-03-26T02:53:34;8.00;99.90
2929;DHT22;1474;51.460;7.150;2023-03-26T02:56:02;8.10;99.90
2929;DHT22;1474;51.460;7.150;2023-03-26T02:58:27;8.00;99.90
2929;DHT22;1474;51.460;7.150;2023-03-26T03:00:55;8.10;99.90
2929;DHT22;1474;51.460;7.150;2023-03-26T03:03:25;8.10;99.90
2929;DHT22;1474;51.460;7.150;2023-03-26T03:05:55;8.10;99.90
2929;DHT22;1474;51.460;7.150;2023-03-26T03:08:23;8.10;99.90
2929;DHT22;1474;51.460;7.150;2023-03-26T03:11:06;8.10;99.90
2929;DHT22;1474;51.460;7.150;2023-03-26T03:13:32;8.10;99.90
2929;DHT22;1474;51.460;7.150;2023-03-26T03:15:58;8.10;99.90
2929;DHT22;1474;51.460;7.150;2023-03-26T03:18:23;8.10;99.90
2929;DHT22;1474;51.460;7.150;2023-03-26T03:20:49;8.10;99.90
2929;DHT22;1474;51.460;7.150;2023-03-26T03:23:15;8.10;99.90
2929;DHT22;1474;51.460;7.150;2023-03-26T03:25:41;8.10;99.90
2929;DHT22;1474;51.460;7.150;2023-03-26T03:28:07;8.10;99.90
2929;DHT22;1474;51.460;7.150;2023-03-26T03:30:34;8.10;99.90
2929;DHT22;1474;51.460;7.150;2023-03-26T03:33:00;8.10;99.90
2929;DHT22;1474;51.460;7.150;2023-03-26T03:35:27;8.10;99.90
2929;DHT22;1474;51.460;7.150;2023-03-26T03:37:53;8.10;99.90
2929;DHT22;1474;51.460;7.150;2023-03-26T03:40:18;8.10;99.90
2929;DHT22;1474;51.460;7.150;2023-03-26T03:42:45;8.10;99.90
2929;DHT22;1474;51.460;7.150;2023-03-26T03:45:12;8.10;99.90
2929;DHT22;1474;51.460;7.150;2023-03-26T03:47:37;8.10;99.90
2929;DHT22;1474;51.460;7.150;2023-03-26T03:50:04;8.10;99.90
2929;DHT22;1474;51.460;7.150;2023-03-26T03:52:30;8.10;99.90
2929;DHT22;1474;51.460;7.150;2023-03-26T03:54:56;8.10;99.90
2929;DHT22;1474;51.460;7.150;2023-03-26T03:57:28;8.10;99.90
2929;DHT22;1474;51.460;7.150;2023-03-26T03:59:55;8.10;99.90
2929;DHT22;1474;51.460;7.150;2023-03-26T04:02:24;8.10;99.90
2929;DHT22;1474;51.460;7.150;2023-03-26T04:04:54;8.20;99.90
2929;DHT22;1474;51.460;7.150;2023-03-26T04:07:23;8.20;99.90
2929;DHT22;1474;51.460;7.150;2023-03-26T04:09:48;8.20;99.90
2929;DHT22;1474;51.460;7.150;2023-03-26T04:12:14;8.20;99.90
2929;DHT22;1474;51.460;7.150;2023-03-26T04:14:40;8.20;99.90
2929;DHT22;1474;51.460;7.150;2023-03-26T04:17:05;8.20;99.90
2929;DHT22;1474;51.460;7.150;2023-03-26T04:19:31;8.20;99.90
2929;DHT22;1474;51.460;7.150;2023-03-26T04:21:57;8.20;99.90
2929;DHT22;1474;51.460;7.150;2023-03-26T04:24:30;8.30;99.90
2929;DHT22;1474;51.460;7.150;2023-03-26T04:26:59;8.30;99.90
2929;DHT22;1474;51.460;7.150;2023-03-26T04:29:28;8.30;99.90
2929;DHT22;1474;51.460;7.150;2023-03-26T04:31:57;8.30;99.90
2929;DHT22;1474;51.460;7.150;2023-03-26T04:34:23;8.20;99.90
2929;DHT22;1474;51.460;7.150;2023-03-26T04:36:51;8.30;99.90
2929;DHT22;1474;51.460;7.150;2023-03-26T04:39:19;8.30;99.90
2929;DHT22;1474;51.460;7.150;2023-03-26T04:41:54;8.20;99.90
2929;DHT22;1474;51.460;7.150;2023-03-26T04:44:20;8.20;99.90
2929;DHT22;1474;51.460;7.150;2023-03-26T04:46:49;8.20;99.90
2929;DHT22;1474;51.460;7.150;2023-03-26T04:49:18;8.20;99.90
2929;DHT22;1474;51.460;7.150;2023-03-26T04:51:43;8.20;99.90
2929;DHT22;1474;51.460;7.150;2023-03-26T04:54:12;8.20;99.90
2929;DHT22;1474;51.460;7.150;2023-03-26T04:56:48;8.20;99.90
2929;DHT22;1474;51.460;7.150;2023-03-26T04:59:22;8.20;99.90
2929;DHT22;1474;51.460;7.150;2023-03-26T05:01:52;8.20;99.90
2929;DHT22;1474;51.460;7.150;2023-03-26T05:04:17;8.20;99.90
2929;DHT22;1474;51.460;7.150;2023-03-26T05:06:43;8.20;99.90
2929;DHT22;1474;51.460;7.150;2023-03-26T05:09:09;8.20;99.90
2929;DHT22;1474;51.460;7.150;2023-03-26T05:11:35;8.20;99.90
2929;DHT22;1474;51.460;7.150;2023-03-26T05:14:01;8.20;99.90
2929;DHT22;1474;51.460;7.150;2023-03-26T05:16:27;8.20;99.90
2929;DHT22;1474;51.460;7.150;2023-03-26T05:18:53;8.20;99.90
2929;DHT22;1474;51.460;7.150;2023-03-26T05:21:19;8.20;99.90
2929;DHT22;1474;51.460;7.150;2023-03-26T05:23:45;8.20;99.90
2929;DHT22;1474;51.460;7.150;2023-03-26T05:26:10;8.20;99.90
2929;DHT22;1474;51.460;7.150;2023-03-26T05:28:36;8.20;99.90
2929;DHT22;1474;51.460;7.150;2023-03-26T05:31:02;8.20;99.90
2929;DHT22;1474;51.460;7.150;2023-03-26T05:33:28;8.20;99.90
2929;DHT22;1474;51.460;7.150;2023-03-26T05:36:02;8.20;99.90
2929;DHT22;1474;51.460;7.150;2023-03-26T05:38:29;8.20;99.90
2929;DHT22;1474;51.460;7.150;2023-03-26T05:41:02;8.20;99.90
2929;DHT22;1474;51.460;7.150;2023-03-26T05:43:29;8.20;99.90
2929;DHT22;1474;51.460;7.150;2023-03-26T05:45:54;8.10;99.90
2929;DHT22;1474;51.460;7.150;2023-03-26T05:48:20;8.10;99.90
2929;DHT22;1474;51.460;7.150;2023-03-26T05:50:48;8.10;99.90
2929;DHT22;1474;51.460;7.150;2023-03-26T05:53:14;8.10;99.90
2929;DHT22;1474;51.460;7.150;2023-03-26T05:55:40;8.20;99.90
2929;DHT22;1474;51.460;7.150;2023-03-26T05:58:10;8.20;99.90
2929;DHT22;1474;51.460;7.150;2023-03-26T06:00:36;8.20;99.90
2929;DHT22;1474;51.460;7.150;2023-03-26T06:03:04;8.30;99.90
2929;DHT22;1474;51.460;7.150;2023-03-26T06:05:34;8.20;99.90
2929;DHT22;1474;51.460;7.150;2023-03-26T06:08:02;8.30;99.90
2929;DHT22;1474;51.460;7.150;2023-03-26T06:10:28;8.30;99.90
2929;DHT22;1474;51.460;7.150;2023-03-26T06:12:54;8.30;99.90
2929;DHT22;1474;51.460;7.150;2023-03-26T06:15:19;8.30;99.90
2929;DHT22;1474;51.460;7.150;2023-03-26T06:17:45;8.30;99.90
2929;DHT22;1474;51.460;7.150;2023-03-26T06:20:11;8.30;99.90
2929;DHT22;1474;51.460;7.150;2023-03-26T06:22:37;8.30;99.90
2929;DHT22;1474;51.460;7.150;2023-03-26T06:25:03;8.30;99.90
2929;DHT22;1474;51.460;7.150;2023-03-26T06:27:28;8.30;99.90
2929;DHT22;1474;51.460;7.150;2023-03-26T06:29:54;8.20;99.90
2929;DHT22;1474;51.460;7.150;2023-03-26T06:32:20;8.30;99.90
2929;DHT22;1474;51.460;7.150;2023-03-26T06:34:46;8.20;99.90
2929;DHT22;1474;51.460;7.150;2023-03-26T06:37:12;8.30;99.90
2929;DHT22;1474;51.460;7.150;2023-03-26T06:39:37;8.30;99.90
2929;DHT22;1474;51.460;7.150;2023-03-26T06:42:03;8.30;99.90
2929;DHT22;1474;51.460;7.150;2023-03-26T06:44:29;8.30;99.90
2929;DHT22;1474;51.460;7.150;2023-03-26T06:46:55;8.30;99.90
2929;DHT22;1474;51.460;7.150;2023-03-26T06:49:20;8.30;99.90
2929;DHT22;1474;51.460;7.150;2023-03-26T06:51:46;8.30;99.90
2929;DHT22;1474;51.460;7.150;2023-03-26T06:54:12;8.30;99.90
2929;DHT22;1474;51.460;7.150;2023-03-26T06:56:38;8.30;99.90
2929;DHT22;1474;51.460;7.150;2023-03-26T06:59:04;8.30;99.90
2929;DHT22;1474;51.460;7.150;2023-03-26T07:01:30;8.30;99.90
2929;DHT22;1474;51.460;7.150;2023-03-26T07:03:55;8.30;99.90
2929;DHT22;1474;51.460;7.150;2023-03-26T07:06:21;8.40;99.90
2929;DHT22;1474;51.460;7.150;2023-03-26T07:08:47;8.40;99.90
2929;DHT22;1474;51.460;7.150;2023-03-26T07:11:12;8.40;99.90
2929;DHT22;1474;51.460;7.150;2023-03-26T07:13:38;8.40;99.90
2929;DHT22;1474;51.460;7.150;2023-03-26T07:16:05;8.40;99.90
2929;DHT22;1474;51.460;7.150;2023-03-26T07:18:31;8.50;99.90
2929;DHT22;1474;51.460;7.150;2023-03-26T07:20:57;8.40;99.90
2929;DHT22;1474;51.460;7.150;2023-03-26T07:23:23;8.40;99.90
2929;DHT22;1474;51.460;7.150;2023-03-26T07:25:49;8.40;99.90
2929;DHT22;1474;51.460;7.150;2023-03-26T07:28:39;8.50;99.90
2929;DHT22;1474;51.460;7.150;2023-03-26T07:31:25;8.50;99.90
2929;DHT22;1474;51.460;7.150;2023-03-26T07:34:10;8.50;99.90
2929;DHT22;1474;51.460;7.150;2023-03-26T07:37:00;8.50;99.90
2929;DHT22;1474;51.460;7.150;2023-03-26T07:39:54;8.60;99.90
2929;DHT22;1474;51.460;7.150;2023-03-26T07:47:34;8.60;99.90
2929;DHT22;1474;51.460;7.150;2023-03-26T07:50:00;8.60;99.90
2929;DHT22;1474;51.460;7.150;2023-03-26T07:52:27;8.60;99.90
2929;DHT22;1474;51.460;7.150;2023-03-26T07:54:53;8.70;99.90
2929;DHT22;1474;51.460;7.150;2023-03-26T07:59:58;8.70;99.90
2929;DHT22;1474;51.460;7.150;2023-03-26T08:02:57;8.60;99.90
2929;DHT22;1474;51.460;7.150;2023-03-26T08:05:29;8.70;99.90
2929;DHT22;1474;51.460;7.150;2023-03-26T08:10:51;8.70;99.90
2929;DHT22;1474;51.460;7.150;2023-03-26T08:13:46;8.60;99.90
2929;DHT22;1474;51.460;7.150;2023-03-26T08:21:50;8.50;99.90
2929;DHT22;1474;51.460;7.150;2023-03-26T08:24:35;8.40;99.90
2929;DHT22;1474;51.460;7.150;2023-03-26T08:27:12;8.40;99.90
2929;DHT22;1474;51.460;7.150;2023-03-26T08:29:59;8.40;99.90
2929;DHT22;1474;51.460;7.150;2023-03-26T08:32:28;8.40;99.90
2929;DHT22;1474;51.460;7.150;2023-03-26T08:34:53;8.40;99.90
2929;DHT22;1474;51.460;7.150;2023-03-26T08:37:22;8.50;99.90
2929;DHT22;1474;51.460;7.150;2023-03-26T08:39:47;8.50;99.90
2929;DHT22;1474;51.460;7.150;2023-03-26T08:47:45;8.40;99.90
2929;DHT22;1474;51.460;7.150;2023-03-26T08:59:00;8.60;99.90
2929;DHT22;1474;51.460;7.150;2023-03-26T09:04:40;8.50;99.90
2929;DHT22;1474;51.460;7.150;2023-03-26T09:07:26;8.60;99.90
2929;DHT22;1474;51.460;7.150;2023-03-26T09:18:46;8.70;99.90
2929;DHT22;1474;51.460;7.150;2023-03-26T09:37:49;8.90;99.90
2929;DHT22;1474;51.460;7.150;2023-03-26T09:40:20;8.90;99.90
2929;DHT22;1474;51.460;7.150;2023-03-26T09:45:40;9.00;99.90
2929;DHT22;1474;51.460;7.150;2023-03-26T10:00:07;9.10;99.90
2929;DHT22;1474;51.460;7.150;2023-03-26T10:02:57;9.10;99.90
2929;DHT22;1474;51.460;7.150;2023-03-26T10:08:49;9.30;99.90
2929;DHT22;1474;51.460;7.150;2023-03-26T10:12:37;9.40;99.90
2929;DHT22;1474;51.460;7.150;2023-03-26T10:17:59;9.30;99.90
2929;DHT22;1474;51.460;7.150;2023-03-26T10:35:00;9.20;99.90
2929;DHT22;1474;51.460;7.150;2023-03-26T10:43:41;9.40;99.90
2929;DHT22;1474;51.460;7.150;2023-03-26T10:52:02;9.20;99.90
2929;DHT22;1474;51.460;7.150;2023-03-26T10:57:18;9.30;99.90
2929;DHT22;1474;51.460;7.150;2023-03-26T10:59:46;9.30;99.90
2929;DHT22;1474;51.460;7.150;2023-03-26T11:02:21;9.30;99.90
2929;DHT22;1474;51.460;7.150;2023-03-26T11:05:18;9.20;99.90
2929;DHT22;1474;51.460;7.150;2023-03-26T11:07:43;9.10;99.90
2929;DHT22;1474;51.460;7.150;2023-03-26T11:13:20;9.00;99.90
2929;DHT22;1474;51.460;7.150;2023-03-26T11:19:24;9.00;99.90
2929;DHT22;1474;51.460;7.150;2023-03-26T11:25:16;9.00;99.90
2929;DHT22;1474;51.460;7.150;2023-03-26T11:28:05;9.00;99.90
2929;DHT22;1474;51.460;7.150;2023-03-26T11:33:25;9.00;99.90
2929;DHT22;1474;51.460;7.150;2023-03-26T11:35:57;9.00;99.90
2929;DHT22;1474;51.460;7.150;2023-03-26T11:38:35;9.00;99.90
2929;DHT22;1474;51.460;7.150;2023-03-26T11:41:03;9.00;99.90
2929;DHT22;1474;51.460;7.150;2023-03-26T11:43:35;8.90;99.90
2929;DHT22;1474;51.460;7.150;2023-03-26T11:46:03;8.80;99.90
2929;DHT22;1474;51.460;7.150;2023-03-26T11:51:08;8.60;99.90
2929;DHT22;1474;51.460;7.150;2023-03-26T11:53:36;8.50;99.90
2929;DHT22;1474;51.460;7.150;2023-03-26T11:56:27;8.50;99.90
2929;DHT22;1474;51.460;7.150;2023-03-26T11:59:17;8.60;99.90
2929;DHT22;1474;51.460;7.150;2023-03-26T12:01:57;8.80;99.90
2929;DHT22;1474;51.460;7.150;2023-03-26T12:09:54;9.00;99.90
2929;DHT22;1474;51.460;7.150;2023-03-26T12:12:24;9.00;99.90
2929;DHT22;1474;51.460;7.150;2023-03-26T12:14:50;9.00;99.90
2929;DHT22;1474;51.460;7.150;2023-03-26T12:17:36;8.90;99.90
2929;DHT22;1474;51.460;7.150;2023-03-26T12:22:54;9.00;99.90
2929;DHT22;1474;51.460;7.150;2023-03-26T12:25:36;9.00;99.90
2929;DHT22;1474;51.460;7.150;2023-03-26T12:30:49;9.00;99.90
2929;DHT22;1474;51.460;7.150;2023-03-26T12:33:26;8.90;99.90
2929;DHT22;1474;51.460;7.150;2023-03-26T12:35:53;9.00;99.90
2929;DHT22;1474;51.460;7.150;2023-03-26T12:41:15;9.20;99.90
2929;DHT22;1474;51.460;7.150;2023-03-26T12:43:51;9.30;99.90
2929;DHT22;1474;51.460;7.150;2023-03-26T12:46:32;9.30;99.90
2929;DHT22;1474;51.460;7.150;2023-03-26T12:49:01;9.30;99.90
2929;DHT22;1474;51.460;7.150;2023-03-26T12:51:54;9.30;99.90
2929;DHT22;1474;51.460;7.150;2023-03-26T13:05:36;9.40;99.90
2929;DHT22;1474;51.460;7.150;2023-03-26T13:08:36;9.40;99.90
2929;DHT22;1474;51.460;7.150;2023-03-26T13:16:31;9.40;99.90
2929;DHT22;1474;51.460;7.150;2023-03-26T13:24:42;9.40;99.90
2929;DHT22;1474;51.460;7.150;2023-03-26T13:30:13;9.60;99.90
2929;DHT22;1474;51.460;7.150;2023-03-26T13:35:44;9.80;99.90
2929;DHT22;1474;51.460;7.150;2023-03-26T13:46:52;10.50;99.90
2929;DHT22;1474;51.460;7.150;2023-03-26T13:49:42;10.60;99.90
2929;DHT22;1474;51.460;7.150;2023-03-26T13:52:25;10.70;99.90
2929;DHT22;1474;51.460;7.150;2023-03-26T13:56:12;10.60;99.90
2929;DHT22;1474;51.460;7.150;2023-03-26T14:01:03;10.40;99.90
2929;DHT22;1474;51.460;7.150;2023-03-26T14:06:43;10.00;99.90
2929;DHT22;1474;51.460;7.150;2023-03-26T14:09:41;9.90;99.90
2929;DHT22;1474;51.460;7.150;2023-03-26T14:15:04;9.60;99.90
2929;DHT22;1474;51.460;7.150;2023-03-26T14:17:37;9.60;99.90
2929;DHT22;1474;51.460;7.150;2023-03-26T14:26:00;9.80;99.90
2929;DHT22;1474;51.460;7.150;2023-03-26T14:31:37;9.90;99.90
2929;DHT22;1474;51.460;7.150;2023-03-26T14:37:19;9.90;99.90
2929;DHT22;1474;51.460;7.150;2023-03-26T14:42:51;10.00;99.90
2929;DHT22;1474;51.460;7.150;2023-03-26T14:46:17;9.90;99.90
2929;DHT22;1474;51.460;7.150;2023-03-26T14:51:27;9.80;99.90
2929;DHT22;1474;51.460;7.150;2023-03-26T14:54:01;9.70;99.90
2929;DHT22;1474;51.460;7.150;2023-03-26T15:05:44;9.40;99.90
2929;DHT22;1474;51.460;7.150;2023-03-26T15:08:51;9.40;99.90
2929;DHT22;1474;51.460;7.150;2023-03-26T15:11:33;9.50;99.90
2929;DHT22;1474;51.460;7.150;2023-03-26T15:20:05;9.40;99.90
2929;DHT22;1474;51.460;7.150;2023-03-26T15:23:16;9.30;99.90
2929;DHT22;1474;51.460;7.150;2023-03-26T15:29:22;9.20;99.90
2929;DHT22;1474;51.460;7.150;2023-03-26T15:32:05;9.30;99.90
2929;DHT22;1474;51.460;7.150;2023-03-26T15:34:57;9.30;99.90
2929;DHT22;1474;51.460;7.150;2023-03-26T15:55:59;8.90;99.90
2929;DHT22;1474;51.460;7.150;2023-03-26T16:04:23;8.60;99.90
2929;DHT22;1474;51.460;7.150;2023-03-26T16:06:59;8.50;99.90
2929;DHT22;1474;51.460;7.150;2023-03-26T16:09:54;8.50;99.90
2929;DHT22;1474;51.460;7.150;2023-03-26T16:12:45;8.50;99.90
2929;DHT22;1474;51.460;7.150;2023-03-26T16:15:26;8.40;99.90
2929;DHT22;1474;51.460;7.150;2023-03-26T16:26:21;8.30;99.90
2929;DHT22;1474;51.460;7.150;2023-03-26T16:36:50;8.30;99.90
2929;DHT22;1474;51.460;7.150;2023-03-26T16:39:23;8.30;99.90
2929;DHT22;1474;51.460;7.150;2023-03-26T16:42:02;8.30;99.90
2929;DHT22;1474;51.460;7.150;2023-03-26T16:44:43;8.30;99.90
2929;DHT22;1474;51.460;7.150;2023-03-26T16:53:19;8.10;99.90
2929;DHT22;1474;51.460;7.150;2023-03-26T16:56:09;8.00;99.90
2929;DHT22;1474;51.460;7.150;2023-03-26T16:58:54;8.00;99.90
2929;DHT22;1474;51.460;7.150;2023-03-26T17:01:27;8.00;99.90
2929;DHT22;1474;51.460;7.150;2023-03-26T17:03:58;8.00;99.90
2929;DHT22;1474;51.460;7.150;2023-03-26T17:21:03;7.90;99.90
2929;DHT22;1474;51.460;7.150;2023-03-26T17:34:39;7.80;99.90
2929;DHT22;1474;51.460;7.150;2023-03-26T17:42:30;7.70;99.90
2929;DHT22;1474;51.460;7.150;2023-03-26T17:45:19;7.60;99.90
2929;DHT22;1474;51.460;7.150;2023-03-26T17:47:57;7.60;99.90
2929;DHT22;1474;51.460;7.150;2023-03-26T17:53:27;7.60;99.90
2929;DHT22;1474;51.460;7.150;2023-03-26T17:55:56;7.50;99.90
2929;DHT22;1474;51.460;7.150;2023-03-26T17:58:34;7.50;99.90
2929;DHT22;1474;51.460;7.150;2023-03-26T18:03:57;7.50;99.90
2929;DHT22;1474;51.460;7.150;2023-03-26T18:17:22;7.30;99.90
2929;DHT22;1474;51.460;7.150;2023-03-26T18:19:52;7.30;99.90
2929;DHT22;1474;51.460;7.150;2023-03-26T18:22:24;7.30;99.90
2929;DHT22;1474;51.460;7.150;2023-03-26T18:24:55;7.30;99.90
2929;DHT22;1474;51.460;7.150;2023-03-26T18:27:25;7.30;99.90
2929;DHT22;1474;51.460;7.150;2023-03-26T18:32:23;7.30;99.90
2929;DHT22;1474;51.460;7.150;2023-03-26T18:34:57;7.30;99.90
2929;DHT22;1474;51.460;7.150;2023-03-26T18:37:32;7.30;99.90
2929;DHT22;1474;51.460;7.150;2023-03-26T18:40:08;7.30;99.90
2929;DHT22;1474;51.460;7.150;2023-03-26T18:42:40;7.30;99.90
2929;DHT22;1474;51.460;7.150;2023-03-26T18:50:46;7.20;99.90
2929;DHT22;1474;51.460;7.150;2023-03-26T18:53:26;7.20;99.90
2929;DHT22;1474;51.460;7.150;2023-03-26T18:55:54;7.20;99.90
2929;DHT22;1474;51.460;7.150;2023-03-26T18:58:33;7.20;99.90
2929;DHT22;1474;51.460;7.150;2023-03-26T19:01:01;7.10;99.90
2929;DHT22;1474;51.460;7.150;2023-03-26T19:03:30;7.10;99.90
2929;DHT22;1474;51.460;7.150;2023-03-26T19:06:00;7.00;99.90
2929;DHT22;1474;51.460;7.150;2023-03-26T19:08:29;7.00;99.90
2929;DHT22;1474;51.460;7.150;2023-03-26T19:10:57;7.00;99.90
2929;DHT22;1474;51.460;7.150;2023-03-26T19:13:26;7.00;99.90
2929;DHT22;1474;51.460;7.150;2023-03-26T19:15:53;7.00;99.90
2929;DHT22;1474;51.460;7.150;2023-03-26T19:18:26;7.00;99.90
2929;DHT22;1474;51.460;7.150;2023-03-26T19:21:00;7.00;99.90
2929;DHT22;1474;51.460;7.150;2023-03-26T19:23:38;7.00;99.90
2929;DHT22;1474;51.460;7.150;2023-03-26T19:26:06;7.00;99.90
2929;DHT22;1474;51.460;7.150;2023-03-26T19:28:47;7.00;99.90
2929;DHT22;1474;51.460;7.150;2023-03-26T19:31:35;7.00;99.90
2929;DHT22;1474;51.460;7.150;2023-03-26T19:36:57;7.00;99.90
2929;DHT22;1474;51.460;7.150;2023-03-26T19:39:35;7.00;99.90
2929;DHT22;1474;51.460;7.150;2023-03-26T19:42:03;6.90;99.90
2929;DHT22;1474;51.460;7.150;2023-03-26T19:44:30;6.90;99.90
2929;DHT22;1474;51.460;7.150;2023-03-26T19:47:02;6.90;99.90
2929;DHT22;1474;51.460;7.150;2023-03-26T19:49:30;6.80;99.90
2929;DHT22;1474;51.460;7.150;2023-03-26T19:55:02;6.70;99.90
2929;DHT22;1474;51.460;7.150;2023-03-26T19:57:30;6.70;99.90
2929;DHT22;1474;51.460;7.150;2023-03-26T20:00:06;6.60;99.90
2929;DHT22;1474;51.460;7.150;2023-03-26T20:02:41;6.60;99.90
2929;DHT22;1474;51.460;7.150;2023-03-26T20:05:33;6.60;99.90
2929;DHT22;1474;51.460;7.150;2023-03-26T20:08:10;6.60;99.90
2929;DHT22;1474;51.460;7.150;2023-03-26T20:10:37;6.40;99.90
2929;DHT22;1474;51.460;7.150;2023-03-26T20:13:03;6.40;99.90
2929;DHT22;1474;51.460;7.150;2023-03-26T20:15:31;6.40;99.90
2929;DHT22;1474;51.460;7.150;2023-03-26T20:17:58;6.30;99.90
2929;DHT22;1474;51.460;7.150;2023-03-26T20:20:25;6.30;99.90
2929;DHT22;1474;51.460;7.150;2023-03-26T20:22:53;6.30;99.90
2929;DHT22;1474;51.460;7.150;2023-03-26T20:25:19;6.30;99.90
2929;DHT22;1474;51.460;7.150;2023-03-26T20:27:45;6.30;99.90
2929;DHT22;1474;51.460;7.150;2023-03-26T20:30:13;6.30;99.90
2929;DHT22;1474;51.460;7.150;2023-03-26T20:32:40;6.30;99.90
2929;DHT22;1474;51.460;7.150;2023-03-26T20:35:25;6.20;99.90
2929;DHT22;1474;51.460;7.150;2023-03-26T20:37:51;6.10;99.90
2929;DHT22;1474;51.460;7.150;2023-03-26T20:40:18;6.10;99.90
2929;DHT22;1474;51.460;7.150;2023-03-26T20:42:44;6.10;99.90
2929;DHT22;1474;51.460;7.150;2023-03-26T20:45:17;6.10;99.90
2929;DHT22;1474;51.460;7.150;2023-03-26T20:47:44;6.00;99.90
2929;DHT22;1474;51.460;7.150;2023-03-26T20:50:14;6.00;99.90
2929;DHT22;1474;51.460;7.150;2023-03-26T20:52:41;6.00;99.90
2929;DHT22;1474;51.460;7.150;2023-03-26T20:55:18;5.90;99.90
2929;DHT22;1474;51.460;7.150;2023-03-26T20:57:47;5.90;99.90
2929;DHT22;1474;51.460;7.150;2023-03-26T21:00:14;5.90;99.90
2929;DHT22;1474;51.460;7.150;2023-03-26T21:02:47;5.80;99.90
2929;DHT22;1474;51.460;7.150;2023-03-26T21:05:16;5.80;99.90
2929;DHT22;1474;51.460;7.150;2023-03-26T21:07:58;5.70;99.90
2929;DHT22;1474;51.460;7.150;2023-03-26T21:10:26;5.70;99.90
2929;DHT22;1474;51.460;7.150;2023-03-26T21:12:54;5.60;99.90
2929;DHT22;1474;51.460;7.150;2023-03-26T21:15:22;5.60;99.90
2929;DHT22;1474;51.460;7.150;2023-03-26T21:17:51;5.50;99.90
2929;DHT22;1474;51.460;7.150;2023-03-26T21:20:18;5.50;99.90
2929;DHT22;1474;51.460;7.150;2023-03-26T21:23:11;5.40;99.90
2929;DHT22;1474;51.460;7.150;2023-03-26T21:28:47;5.40;99.90
2929;DHT22;1474;51.460;7.150;2023-03-26T21:31:18;5.30;99.90
2929;DHT22;1474;51.460;7.150;2023-03-26T21:33:45;5.30;99.90
2929;DHT22;1474;51.460;7.150;2023-03-26T21:36:13;5.30;99.90
2929;DHT22;1474;51.460;7.150;2023-03-26T21:38:39;5.20;99.90
2929;DHT22;1474;51.460;7.150;2023-03-26T21:41:15;5.20;99.90
2929;DHT22;1474;51.460;7.150;2023-03-26T21:43:44;5.10;99.90
2929;DHT22;1474;51.460;7.150;2023-03-26T21:46:11;5.10;99.90
2929;DHT22;1474;51.460;7.150;2023-03-26T21:48:37;5.10;99.90
2929;DHT22;1474;51.460;7.150;2023-03-26T21:51:04;5.00;99.90
2929;DHT22;1474;51.460;7.150;2023-03-26T21:53:29;5.10;99.90
2929;DHT22;1474;51.460;7.150;2023-03-26T21:55:58;5.00;99.90
2929;DHT22;1474;51.460;7.150;2023-03-26T22:03:36;4.80;99.90
2929;DHT22;1474;51.460;7.150;2023-03-26T22:06:15;4.70;99.90
2929;DHT22;1474;51.460;7.150;2023-03-26T22:08:43;4.70;99.90
2929;DHT22;1474;51.460;7.150;2023-03-26T22:11:10;4.60;99.90
2929;DHT22;1474;51.460;7.150;2023-03-26T22:13:37;4.60;99.90
2929;DHT22;1474;51.460;7.150;2023-03-26T22:16:05;4.60;99.90
2929;DHT22;1474;51.460;7.150;2023-03-26T22:18:32;4.50;99.90
2929;DHT22;1474;51.460;7.150;2023-03-26T22:20:59;4.50;99.90
2929;DHT22;1474;51.460;7.150;2023-03-26T22:23:26;4.40;99.90
2929;DHT22;1474;51.460;7.150;2023-03-26T22:25:52;4.40;99.90
2929;DHT22;1474;51.460;7.150;2023-03-26T22:28:19;4.40;99.90
2929;DHT22;1474;51.460;7.150;2023-03-26T22:30:45;4.40;99.90
2929;DHT22;1474;51.460;7.150;2023-03-26T22:33:11;4.30;99.90
2929;DHT22;1474;51.460;7.150;2023-03-26T22:35:37;4.30;99.90